Time;durP1;ratioP1;P1;durP2;ratioP2;P2;SDS_P1;SDS_P2;PMS_P1;PMS_P2;Temp;Humidity;BMP_temperature;BMP_pressure;BME280_temperature;BME280_humidity;BME280_pressure;Samples;Min_cycle;Max_cycle;Signal;HPM_P1;HPM_P2
2023/04/09 00:01:03;;;;;;;;;;;;;;;12.21;47.00;97249.63;4218316;28;5625;-73
2023/04/09 00:03:06;;;;;;;;;;;;;;;12.26;46.99;97240.28;4216972;28;5684;-73
2023/04/09 00:05:10;;;;;;;;;;;;;;;12.32;46.86;97242.16;4218728;28;5620;-73
2023/04/09 00:07:12;;;;;;;;;;;;;;;12.34;46.91;97248.91;4218627;28;5704;-73
2023/04/09 00:09:15;;;;;;;;;;;;;;;12.36;47.12;97246.06;4218324;28;5167;-73
2023/04/09 00:11:18;;;;;;;;;;;;;;;12.42;46.79;97242.63;4218119;28;6497;-73
2023/04/09 00:13:22;;;;;;;;;;;;;;;12.46;46.92;97249.22;4218651;28;6355;-73
2023/04/09 00:15:40;;;;;;;;;;;;;;;12.49;47.06;97232.91;4219561;28;5701;-73
2023/04/09 00:17:43;;;;;;;;;;;;;;;12.49;47.08;97230.25;4219708;28;5673;-73
2023/04/09 00:19:46;;;;;;;;;;;;;;;12.47;46.70;97242.91;4219549;28;5632;-73
2023/04/09 00:21:49;;;;;;;;;;;;;;;12.48;46.96;97239.22;4219772;28;6299;-74
2023/04/09 00:23:51;;;;;;;;;;;;;;;12.49;46.75;97244.34;4219520;28;5707;-74
2023/04/09 00:25:54;;;;;;;;;;;;;;;12.49;47.13;97246.97;4216326;28;5177;-73
2023/04/09 00:27:57;;;;;;;;;;;;;;;12.50;46.86;97238.00;4219425;28;5621;-74
2023/04/09 00:30:02;;;;;;;;;;;;;;;12.52;47.05;97245.78;4213366;28;5687;-73
2023/04/09 00:32:05;;;;;;;;;;;;;;;12.46;47.20;97238.59;4219249;28;5628;-73
2023/04/09 00:34:08;;;;;;;;;;;;;;;12.47;47.38;97234.94;4219320;28;5601;-73
2023/04/09 00:36:11;;;;;;;;;;;;;;;12.47;47.27;97234.94;4215845;28;6413;-73
2023/04/09 00:38:14;;;;;;;;;;;;;;;12.46;47.26;97233.31;4217701;28;5609;-73
2023/04/09 00:40:17;;;;;;;;;;;;;;;12.43;47.31;97236.31;4218998;28;5673;-73
2023/04/09 00:42:20;;;;;;;;;;;;;;;12.39;47.42;97235.06;4219059;28;5719;-73
2023/04/09 00:44:23;;;;;;;;;;;;;;;12.37;47.46;97237.09;4218906;28;5816;-73
2023/04/09 00:46:27;;;;;;;;;;;;;;;12.34;47.54;97234.81;4219217;28;5780;-73
2023/04/09 00:48:30;;;;;;;;;;;;;;;12.32;47.47;97232.38;4213327;28;5693;-73
2023/04/09 00:50:33;;;;;;;;;;;;;;;12.33;47.36;97231.34;4217208;28;5789;-73
2023/04/09 00:52:36;;;;;;;;;;;;;;;12.34;47.74;97232.16;4218819;28;5744;-73
2023/04/09 00:54:39;;;;;;;;;;;;;;;12.35;47.57;97239.13;4219009;28;5712;-73
2023/04/09 00:56:42;;;;;;;;;;;;;;;12.32;47.50;97234.19;4207553;28;5662;-74
2023/04/09 00:58:45;;;;;;;;;;;;;;;12.30;47.63;97237.06;4219060;28;5605;-74
2023/04/09 01:00:48;;;;;;;;;;;;;;;12.31;47.81;97230.72;4218472;28;5673;-74
2023/04/09 01:02:52;;;;;;;;;;;;;;;12.30;47.72;97237.06;4219011;28;5692;-73
2023/04/09 01:04:55;;;;;;;;;;;;;;;12.28;47.74;97227.66;4217442;28;5616;-74
2023/04/09 01:07:05;;;;;;;;;;;;;;;12.27;48.07;97234.78;4218724;28;6362;-73
2023/04/09 01:09:15;;;;;;;;;;;;;;;12.25;48.02;97231.53;4218717;28;5681;-73
2023/04/09 01:11:31;;;;;;;;;;;;;;;12.20;47.89;97232.06;4218927;28;5803;-73
2023/04/09 01:13:42;;;;;;;;;;;;;;;12.23;48.29;97242.31;4218610;28;5646;-73
2023/04/09 01:15:51;;;;;;;;;;;;;;;12.23;47.95;97229.06;4218411;28;5625;-73
2023/04/09 01:18:04;;;;;;;;;;;;;;;12.21;48.34;97225.75;4218800;28;5613;-73
2023/04/09 01:20:13;;;;;;;;;;;;;;;12.22;48.19;97227.41;4218840;28;5716;-73
2023/04/09 01:22:29;;;;;;;;;;;;;;;12.23;48.25;97223.75;4218798;28;5668;-73
2023/04/09 01:24:44;;;;;;;;;;;;;;;12.23;48.12;97221.13;4218821;28;5799;-73
2023/04/09 01:26:57;;;;;;;;;;;;;;;12.21;48.19;97223.13;4218854;28;5625;-74
2023/04/09 01:29:03;;;;;;;;;;;;;;;12.16;48.24;97222.06;4218802;28;5612;-74
2023/04/09 01:31:12;;;;;;;;;;;;;;;12.16;48.22;97224.72;4218428;28;5737;-74
2023/04/09 01:33:17;;;;;;;;;;;;;;;12.15;48.45;97225.72;4218507;28;5621;-73
2023/04/09 01:35:21;;;;;;;;;;;;;;;12.13;48.51;97225.13;4218823;28;5794;-74
2023/04/09 01:37:25;;;;;;;;;;;;;;;12.09;48.36;97218.53;4218390;28;5669;-74
2023/04/09 01:39:28;;;;;;;;;;;;;;;12.09;48.32;97224.66;4218008;28;5823;-73
2023/04/09 01:41:33;;;;;;;;;;;;;;;12.11;48.65;97222.63;4218416;28;5669;-73
2023/04/09 01:43:38;;;;;;;;;;;;;;;12.13;48.77;97220.63;4218450;28;5654;-74
2023/04/09 01:45:43;;;;;;;;;;;;;;;12.13;48.36;97220.63;4218135;28;5685;-74
2023/04/09 01:47:47;;;;;;;;;;;;;;;12.14;48.48;97230.22;4217778;28;5726;-74
2023/04/09 01:49:51;;;;;;;;;;;;;;;12.13;48.69;97231.22;4218199;28;5633;-73
2023/04/09 01:51:54;;;;;;;;;;;;;;;12.07;48.88;97231.97;4218467;28;5099;-74
2023/04/09 01:53:57;;;;;;;;;;;;;;;12.09;48.90;97234.44;4218196;28;5632;-74
2023/04/09 01:56:00;;;;;;;;;;;;;;;12.08;48.89;97230.97;4217880;28;5617;-74
2023/04/09 01:58:03;;;;;;;;;;;;;;;12.09;48.67;97229.94;4218429;28;5869;-73
2023/04/09 02:00:08;;;;;;;;;;;;;;;12.09;48.71;97231.78;4217833;28;7138;-73
2023/04/09 02:02:18;;;;;;;;;;;;;;;12.05;48.67;97235.84;4218183;28;5712;-74
2023/04/09 02:04:26;;;;;;;;;;;;;;;12.01;49.10;97238.06;4218076;28;6362;-74
2023/04/09 02:06:37;;;;;;;;;;;;;;;11.96;49.09;97235.16;4218100;28;5613;-74
2023/04/09 02:08:44;;;;;;;;;;;;;;;11.94;49.08;97247.78;4218054;28;5741;-74
2023/04/09 02:10:52;;;;;;;;;;;;;;;11.96;48.92;97251.03;4218167;28;5717;-74
2023/04/09 02:12:56;;;;;;;;;;;;;;;11.96;49.16;97248.41;4217991;28;5728;-73
2023/04/09 02:15:01;;;;;;;;;;;;;;;11.95;49.21;97241.47;4217667;28;5763;-73
2023/04/09 02:17:04;;;;;;;;;;;;;;;11.97;49.20;97235.97;4218039;28;5636;-74
2023/04/09 02:19:08;;;;;;;;;;;;;;;11.96;49.09;97240.44;4217990;28;5690;-73
2023/04/09 02:21:12;;;;;;;;;;;;;;;11.98;49.36;97234.94;4218081;28;5683;-74
2023/04/09 02:23:15;;;;;;;;;;;;;;;11.99;49.21;97239.25;4218137;28;5688;-74
2023/04/09 02:25:19;;;;;;;;;;;;;;;12.00;48.98;97249.66;4217874;28;5689;-73
2023/04/09 02:27:22;;;;;;;;;;;;;;;12.00;49.22;97241.69;4218053;28;5669;-74
2023/04/09 02:29:24;;;;;;;;;;;;;;;12.00;49.31;97247.00;4217916;28;5673;-73
2023/04/09 02:31:27;;;;;;;;;;;;;;;11.99;49.34;97240.06;4217529;28;5645;-73
2023/04/09 02:33:30;;;;;;;;;;;;;;;11.93;49.49;97231.06;4217782;28;5624;-73
2023/04/09 02:35:34;;;;;;;;;;;;;;;11.94;49.64;97243.28;4217647;28;5674;-74
2023/04/09 02:37:37;;;;;;;;;;;;;;;11.97;49.24;97236.78;4217672;28;5729;-73
2023/04/09 02:39:40;;;;;;;;;;;;;;;11.95;49.43;97234.34;4199743;28;5655;-73
2023/04/09 02:41:43;;;;;;;;;;;;;;;11.93;49.33;97230.25;4217828;28;5660;-73
2023/04/09 02:43:46;;;;;;;;;;;;;;;11.93;49.50;97235.53;4217648;28;5617;-73
2023/04/09 02:45:48;;;;;;;;;;;;;;;11.91;49.47;97242.88;4217391;28;5714;-73
2023/04/09 02:47:51;;;;;;;;;;;;;;;11.91;49.70;97237.56;4217737;28;5625;-74
2023/04/09 02:49:54;;;;;;;;;;;;;;;11.92;49.64;97233.91;4217650;28;5613;-74
2023/04/09 02:51:58;;;;;;;;;;;;;;;11.93;49.51;97230.25;4217564;28;5641;-73
2023/04/09 02:54:01;;;;;;;;;;;;;;;11.93;49.62;97241.66;4217500;28;5612;-73
2023/04/09 02:56:04;;;;;;;;;;;;;;;11.94;49.52;97242.47;4217686;28;5702;-73
2023/04/09 02:58:07;;;;;;;;;;;;;;;11.89;49.88;97240.41;4217454;28;5767;-74
2023/04/09 03:00:12;;;;;;;;;;;;;;;11.90;49.55;97244.69;4202125;28;5627;-73
2023/04/09 03:02:15;;;;;;;;;;;;;;;11.89;49.60;97239.56;4221104;28;5843;-74
2023/04/09 03:04:18;;;;;;;;;;;;;;;11.91;49.82;97242.88;4220988;28;7396;-73
2023/04/09 03:06:21;;;;;;;;;;;;;;;11.93;49.49;97246.94;4220792;28;5723;-74
2023/04/09 03:08:25;;;;;;;;;;;;;;;11.89;49.85;97237.75;4220954;28;5692;-73
2023/04/09 03:10:28;;;;;;;;;;;;;;;11.85;49.75;97236.47;4220143;28;5727;-74
2023/04/09 03:12:31;;;;;;;;;;;;;;;11.85;50.15;97243.59;4220914;28;5604;-73
2023/04/09 03:14:33;;;;;;;;;;;;;;;11.82;49.68;97236.88;4221023;28;6389;-73
2023/04/09 03:16:37;;;;;;;;;;;;;;;11.79;49.72;97231.09;4220655;28;5080;-73
2023/04/09 03:18:39;;;;;;;;;;;;;;;11.79;49.76;97233.75;4220802;28;5745;-74
2023/04/09 03:20:42;;;;;;;;;;;;;;;11.71;50.11;97225.94;4220904;28;6383;-74
2023/04/09 03:22:45;;;;;;;;;;;;;;;11.64;50.19;97226.66;4219696;28;5772;-74
2023/04/09 03:24:49;;;;;;;;;;;;;;;11.59;50.40;97225.63;4220681;28;5624;-74
2023/04/09 03:26:52;;;;;;;;;;;;;;;11.61;50.40;97227.06;4220713;28;5707;-74
2023/04/09 03:28:55;;;;;;;;;;;;;;;11.64;50.01;97225.84;4220691;28;5621;-74
2023/04/09 03:30:58;;;;;;;;;;;;;;;11.63;50.30;97227.69;4220227;28;6296;-74
2023/04/09 03:33:00;;;;;;;;;;;;;;;11.68;50.07;97228.97;4220705;28;5823;-74
2023/04/09 03:35:04;;;;;;;;;;;;;;;11.66;50.12;97229.97;4220438;28;6369;-73
2023/04/09 03:37:07;;;;;;;;;;;;;;;11.67;50.32;97230.78;4220548;28;6189;-74
2023/04/09 03:39:09;;;;;;;;;;;;;;;11.69;50.23;97230.59;4220231;28;5700;-74
2023/04/09 03:41:13;;;;;;;;;;;;;;;11.73;50.50;97229.19;4220381;28;5905;-75
2023/04/09 03:43:16;;;;;;;;;;;;;;;11.72;50.40;97228.38;4220296;28;5616;-74
2023/04/09 03:45:19;;;;;;;;;;;;;;;11.74;50.36;97222.91;4220132;28;5669;-74
2023/04/09 03:47:22;;;;;;;;;;;;;;;11.74;50.40;97226.38;4220529;28;5952;-74
2023/04/09 03:49:25;;;;;;;;;;;;;;;11.72;50.15;97220.44;4220561;28;5677;-75
2023/04/09 03:51:28;;;;;;;;;;;;;;;11.74;50.12;97220.25;4220301;28;5704;-74
2023/04/09 03:53:31;;;;;;;;;;;;;;;11.73;50.47;97218.59;4220074;28;5632;-74
2023/04/09 03:55:33;;;;;;;;;;;;;;;11.69;50.37;97223.47;4220139;28;5673;-73
2023/04/09 03:57:38;;;;;;;;;;;;;;;11.66;50.54;97219.38;4220224;28;5719;-74
2023/04/09 03:59:40;;;;;;;;;;;;;;;11.69;50.33;97226.13;4220109;28;5715;-74
2023/04/09 04:01:43;;;;;;;;;;;;;;;11.69;50.45;97226.13;4219839;28;6370;-74
2023/04/09 04:03:46;;;;;;;;;;;;;;;11.73;50.47;97226.56;4220180;28;5625;-75
2023/04/09 04:05:49;;;;;;;;;;;;;;;11.71;50.26;97223.28;4219940;28;5788;-74
2023/04/09 04:07:52;;;;;;;;;;;;;;;11.70;50.14;97214.53;4220143;28;5715;-74
2023/04/09 04:09:55;;;;;;;;;;;;;;;11.69;50.34;97220.00;4220157;28;5836;-75
2023/04/09 04:11:58;;;;;;;;;;;;;;;11.68;50.51;97226.31;4218835;28;5097;-75
2023/04/09 04:14:02;;;;;;;;;;;;;;;11.63;50.25;97224.22;4219829;28;5620;-74
2023/04/09 04:16:07;;;;;;;;;;;;;;;11.63;50.46;97224.22;4219540;28;5618;-74
2023/04/09 04:18:10;;;;;;;;;;;;;;;11.69;50.44;97235.91;4219984;28;5697;-74
2023/04/09 04:20:13;;;;;;;;;;;;;;;11.74;50.44;97236.13;4219963;28;5681;-73
2023/04/09 04:22:16;;;;;;;;;;;;;;;11.73;50.24;97229.19;4219810;28;5681;-74
2023/04/09 04:24:19;;;;;;;;;;;;;;;11.72;50.25;97227.56;4219744;28;5669;-74
2023/04/09 04:26:22;;;;;;;;;;;;;;;11.74;50.22;97236.13;4219593;28;5786;-74
2023/04/09 04:28:24;;;;;;;;;;;;;;;11.74;50.11;97238.78;4219657;28;5736;-74
2023/04/09 04:30:29;;;;;;;;;;;;;;;11.68;50.25;97243.03;4219330;28;5673;-74
2023/04/09 04:32:32;;;;;;;;;;;;;;;11.66;50.32;97240.56;4219674;28;5666;-73
2023/04/09 04:34:35;;;;;;;;;;;;;;;11.66;50.47;97240.56;4219516;28;5678;-74
2023/04/09 04:36:37;;;;;;;;;;;;;;;11.67;50.35;97241.38;4219413;28;5759;-73
2023/04/09 04:38:41;;;;;;;;;;;;;;;11.69;50.22;97243.84;4219629;28;5661;-74
2023/04/09 04:40:43;;;;;;;;;;;;;;;11.69;50.32;97238.56;4219583;28;5681;-74
2023/04/09 04:42:47;;;;;;;;;;;;;;;11.67;50.54;97236.09;4219290;28;5625;-74
2023/04/09 04:44:49;;;;;;;;;;;;;;;11.68;50.47;97231.63;4219284;28;5609;-74
2023/04/09 04:46:54;;;;;;;;;;;;;;;11.65;50.27;97241.56;4219167;28;5764;-74
2023/04/09 04:48:56;;;;;;;;;;;;;;;11.61;50.31;97245.59;4219414;28;5787;-74
2023/04/09 04:51:02;;;;;;;;;;;;;;;11.59;50.45;97249.44;4219368;28;5765;-74
2023/04/09 04:53:05;;;;;;;;;;;;;;;11.53;50.41;97250.19;4219238;28;5694;-74
2023/04/09 04:55:08;;;;;;;;;;;;;;;11.48;50.74;97253.41;4219277;28;6016;-74
2023/04/09 04:57:14;;;;;;;;;;;;;;;11.49;50.75;97255.03;4219071;28;5776;-74
2023/04/09 04:59:17;;;;;;;;;;;;;;;11.53;50.57;97253.66;4219107;28;5749;-74
2023/04/09 05:01:19;;;;;;;;;;;;;;;11.55;50.68;97261.41;4218852;28;5654;-74
2023/04/09 05:03:24;;;;;;;;;;;;;;;11.49;50.74;97263.00;4219290;28;5888;-75
2023/04/09 05:05:29;;;;;;;;;;;;;;;11.50;50.95;97261.97;4219317;28;5775;-74
2023/04/09 05:07:33;;;;;;;;;;;;;;;11.47;50.73;97266.84;4219217;28;5669;-74
2023/04/09 05:09:36;;;;;;;;;;;;;;;11.48;50.61;97269.28;4219033;28;7057;-74
2023/04/09 05:11:39;;;;;;;;;;;;;;;11.50;50.61;97267.28;4218977;28;7691;-74
2023/04/09 05:13:42;;;;;;;;;;;;;;;11.48;50.92;97274.59;4218870;28;5673;-74
2023/04/09 05:15:45;;;;;;;;;;;;;;;11.44;51.01;97268.03;4218735;28;5685;-73
2023/04/09 05:17:48;;;;;;;;;;;;;;;11.45;50.91;97272.31;4218826;28;5725;-73
2023/04/09 05:19:52;;;;;;;;;;;;;;;11.49;50.78;97270.13;4219019;28;5069;-74
2023/04/09 05:21:57;;;;;;;;;;;;;;;11.49;50.73;97265.63;4218544;28;5650;-73
2023/04/09 05:24:00;;;;;;;;;;;;;;;11.53;50.86;97276.66;4218217;28;5749;-75
2023/04/09 05:26:03;;;;;;;;;;;;;;;11.53;50.95;97277.47;4218779;28;5778;-74
2023/04/09 05:28:06;;;;;;;;;;;;;;;11.53;50.71;97272.19;4218877;28;5677;-75
2023/04/09 05:30:10;;;;;;;;;;;;;;;11.54;50.54;97284.41;4218502;28;5693;-76
2023/04/09 05:32:12;;;;;;;;;;;;;;;11.51;50.85;97284.78;4218946;28;5616;-75
2023/04/09 05:34:15;;;;;;;;;;;;;;;11.47;50.80;97278.25;4218694;28;5721;-75
2023/04/09 05:36:20;;;;;;;;;;;;;;;11.50;50.87;97291.09;4218469;28;5694;-74
2023/04/09 05:38:22;;;;;;;;;;;;;;;11.48;50.90;97287.81;4218884;28;5069;-74
2023/04/09 05:40:25;;;;;;;;;;;;;;;11.46;51.14;97281.91;4218782;28;5725;-74
2023/04/09 05:42:28;;;;;;;;;;;;;;;11.45;50.90;97288.22;4218632;28;5689;-74
2023/04/09 05:44:31;;;;;;;;;;;;;;;11.43;51.07;97286.72;4218689;28;5658;-74
2023/04/09 05:46:34;;;;;;;;;;;;;;;11.43;51.14;97281.44;4218420;28;5678;-73
2023/04/09 05:48:36;;;;;;;;;;;;;;;11.43;50.79;97284.91;4218397;28;5677;-74
2023/04/09 05:50:39;;;;;;;;;;;;;;;11.44;51.09;97283.91;4217984;28;5704;-74
2023/04/09 05:52:58;;;;;;;;;;;;;;;11.44;50.85;97286.56;4218043;28;5609;-74
2023/04/09 05:55:00;;;;;;;;;;;;;;;11.40;50.92;97287.09;4218221;28;5662;-74
2023/04/09 05:57:03;;;;;;;;;;;;;;;11.43;51.27;97292.03;4218236;28;5681;-75
2023/04/09 05:59:06;;;;;;;;;;;;;;;11.46;51.12;97291.69;4218354;28;6382;-74
2023/04/09 06:01:10;;;;;;;;;;;;;;;11.51;50.81;97295.38;4217968;28;5665;-75
2023/04/09 06:03:12;;;;;;;;;;;;;;;11.51;51.21;97294.56;4215059;28;5911;-74
2023/04/09 06:05:16;;;;;;;;;;;;;;;11.53;50.85;97290.72;4207342;28;5683;-75
2023/04/09 06:07:19;;;;;;;;;;;;;;;11.55;51.05;97296.69;4213021;28;5731;-75
2023/04/09 06:09:23;;;;;;;;;;;;;;;11.57;51.25;97299.13;4213114;28;5691;-75
2023/04/09 06:11:25;;;;;;;;;;;;;;;11.64;50.97;97300.00;4212880;28;5700;-74
2023/04/09 06:13:28;;;;;;;;;;;;;;;11.67;50.96;97304.94;4207175;28;5708;-73
2023/04/09 06:15:31;;;;;;;;;;;;;;;11.66;51.17;97300.63;4215905;28;5772;-74
2023/04/09 06:17:34;;;;;;;;;;;;;;;11.66;50.94;97308.56;4211924;28;6385;-75
2023/04/09 06:19:37;;;;;;;;;;;;;;;11.70;50.96;97309.03;4212916;28;5737;-75
2023/04/09 06:21:40;;;;;;;;;;;;;;;11.71;50.89;97310.69;4216616;28;5689;-74
2023/04/09 06:23:43;;;;;;;;;;;;;;;11.75;50.98;97317.22;4216131;28;5827;-73
2023/04/09 06:25:47;;;;;;;;;;;;;;;11.77;50.81;97315.22;4214729;28;5696;-74
2023/04/09 06:27:50;;;;;;;;;;;;;;;11.76;51.19;97324.16;4214657;28;5684;-73
2023/04/09 06:29:53;;;;;;;;;;;;;;;11.75;51.23;97317.22;4208658;28;5752;-74
2023/04/09 06:31:56;;;;;;;;;;;;;;;11.80;51.09;97320.19;4208074;28;5727;-75
2023/04/09 06:33:59;;;;;;;;;;;;;;;11.81;50.80;97316.53;4215822;28;5760;-76
2023/04/09 06:36:02;;;;;;;;;;;;;;;11.81;51.06;97322.66;4215303;28;5763;-75
2023/04/09 06:38:05;;;;;;;;;;;;;;;11.85;51.07;97320.44;4212599;28;5744;-74
2023/04/09 06:40:09;;;;;;;;;;;;;;;11.86;51.24;97322.88;4205262;28;5684;-74
2023/04/09 06:42:13;;;;;;;;;;;;;;;11.84;51.17;97326.75;4210172;28;5780;-74
2023/04/09 06:44:16;;;;;;;;;;;;;;;11.86;51.18;97325.53;4216049;28;5847;-74
2023/04/09 06:46:20;;;;;;;;;;;;;;;11.88;51.23;97323.53;4209094;28;5111;-74
2023/04/09 06:48:22;;;;;;;;;;;;;;;11.91;51.24;97322.34;4215918;28;5860;-74
2023/04/09 06:50:25;;;;;;;;;;;;;;;11.94;50.92;97321.97;4216242;28;5666;-71
2023/04/09 06:52:28;;;;;;;;;;;;;;;11.98;50.92;97325.03;4215854;28;5959;-72
2023/04/09 06:54:32;;;;;;;;;;;;;;;11.99;50.88;97321.38;4215915;28;5922;-72
2023/04/09 06:56:35;;;;;;;;;;;;;;;11.97;50.97;97323.41;4216004;28;5625;-73
2023/04/09 06:58:39;;;;;;;;;;;;;;;11.89;51.12;97324.34;4215085;28;5654;-73
2023/04/09 07:00:42;;;;;;;;;;;;;;;11.89;51.43;97322.53;4210853;28;5636;-72
2023/04/09 07:02:45;;;;;;;;;;;;;;;11.95;51.06;97326.25;4213488;28;5679;-72
2023/04/09 07:04:48;;;;;;;;;;;;;;;11.97;50.99;97324.22;4213845;28;5601;-72
2023/04/09 07:06:53;;;;;;;;;;;;;;;11.99;51.31;97319.56;4207385;28;5985;-72
2023/04/09 07:08:56;;;;;;;;;;;;;;;11.99;51.27;97318.72;4216006;28;5773;-72
2023/04/09 07:10:59;;;;;;;;;;;;;;;12.02;51.21;97321.03;4215483;28;5772;-72
2023/04/09 07:13:02;;;;;;;;;;;;;;;11.99;51.07;97326.69;4215522;28;6477;-72
2023/04/09 07:15:08;;;;;;;;;;;;;;;11.95;51.34;97327.06;4211358;28;5632;-72
2023/04/09 07:17:10;;;;;;;;;;;;;;;11.98;51.31;97323.22;4215414;28;5895;-72
2023/04/09 07:19:13;;;;;;;;;;;;;;;11.90;51.17;97323.34;4198823;28;5688;-73
2023/04/09 07:21:16;;;;;;;;;;;;;;;11.92;51.12;97318.69;4200679;28;5826;-72
2023/04/09 07:23:20;;;;;;;;;;;;;;;11.96;51.30;97319.94;4215561;28;5694;-72
2023/04/09 07:25:23;;;;;;;;;;;;;;;11.95;51.15;97329.72;4215332;28;5893;-72
2023/04/09 07:27:27;;;;;;;;;;;;;;;11.94;51.49;97332.56;4215741;28;5841;-72
2023/04/09 07:29:30;;;;;;;;;;;;;;;11.93;50.90;97333.56;4215803;28;5773;-72
2023/04/09 07:31:34;;;;;;;;;;;;;;;11.93;51.47;97331.75;4215151;28;5737;-73
2023/04/09 07:33:38;;;;;;;;;;;;;;;11.88;51.55;97326.16;4212320;28;5693;-73
2023/04/09 07:35:40;;;;;;;;;;;;;;;11.87;51.47;97326.34;4213799;28;5616;-74
2023/04/09 07:37:46;;;;;;;;;;;;;;;11.89;51.41;97334.94;4204904;28;5794;-73
2023/04/09 07:39:50;;;;;;;;;;;;;;;11.85;51.38;97338.97;4215620;28;5776;-67
2023/04/09 07:41:52;;;;;;;;;;;;;;;11.85;51.66;97350.41;4208380;28;5821;-70
2023/04/09 07:43:55;;;;;;;;;;;;;;;11.83;51.50;97347.13;4202781;28;5794;-72
2023/04/09 07:45:58;;;;;;;;;;;;;;;11.86;51.48;97345.91;4216242;28;5683;-73
2023/04/09 07:48:02;;;;;;;;;;;;;;;11.87;51.64;97339.59;4218563;28;6605;-72
2023/04/09 07:50:06;;;;;;;;;;;;;;;11.86;51.67;97343.25;4218621;28;5822;-69
2023/04/09 07:52:09;;;;;;;;;;;;;;;11.89;51.67;97340.22;4217310;28;6302;-72
2023/04/09 07:54:12;;;;;;;;;;;;;;;11.93;51.59;97341.50;4198024;28;5731;-67
2023/04/09 07:56:15;;;;;;;;;;;;;;;11.97;51.65;97349.91;4210433;28;5616;-72
2023/04/09 07:58:18;;;;;;;;;;;;;;;11.98;51.60;97336.47;4217701;28;5678;-71
2023/04/09 08:00:20;;;;;;;;;;;;;;;11.98;51.46;97338.28;4207987;28;5086;-73
2023/04/09 08:02:23;;;;;;;;;;;;;;;12.00;51.63;97336.28;4189587;28;5741;-71
2023/04/09 08:04:28;;;;;;;;;;;;;;;12.07;51.54;97337.97;4208522;28;6020;-73
2023/04/09 08:06:31;;;;;;;;;;;;;;;12.12;51.74;97340.09;4210876;28;7719;-73
2023/04/09 08:08:34;;;;;;;;;;;;;;;12.12;51.72;97340.91;4208831;28;5787;-72
2023/04/09 08:10:37;;;;;;;;;;;;;;;12.15;51.78;97351.13;4204496;28;5720;-71
2023/04/09 08:12:40;;;;;;;;;;;;;;;12.16;51.72;97344.81;4212109;28;5700;-70
2023/04/09 08:14:43;;;;;;;;;;;;;;;12.16;51.75;97352.75;4205035;28;5872;-72
2023/04/09 08:16:47;;;;;;;;;;;;;;;12.17;51.49;97348.28;4210320;28;5748;-72
2023/04/09 08:18:50;;;;;;;;;;;;;;;12.18;51.53;97355.22;4217287;28;5704;-71
2023/04/09 08:20:55;;;;;;;;;;;;;;;12.19;51.63;97352.38;4217658;28;5793;-73
2023/04/09 08:22:58;;;;;;;;;;;;;;;12.24;51.92;97355.28;4205830;28;5821;-72
2023/04/09 08:25:01;;;;;;;;;;;;;;;12.28;51.61;97361.03;4204235;28;5632;-73
2023/04/09 08:27:04;;;;;;;;;;;;;;;12.34;51.56;97360.25;4216451;28;5674;-73
2023/04/09 08:29:08;;;;;;;;;;;;;;;12.36;51.96;97365.38;4205072;28;5878;-71
2023/04/09 08:31:11;;;;;;;;;;;;;;;12.33;52.01;97368.41;4202428;28;5621;-70
2023/04/09 08:33:14;;;;;;;;;;;;;;;12.32;51.87;97366.75;4199569;28;5739;-69
2023/04/09 08:35:17;;;;;;;;;;;;;;;12.31;52.19;97365.13;4199764;28;5759;-69
2023/04/09 08:37:21;;;;;;;;;;;;;;;12.34;52.15;97364.72;4203577;28;5844;-70
2023/04/09 08:39:24;;;;;;;;;;;;;;;12.36;52.08;97368.03;4213773;28;5620;-71
2023/04/09 08:41:28;;;;;;;;;;;;;;;12.37;51.95;97367.03;4201625;28;5636;-70
2023/04/09 08:43:32;;;;;;;;;;;;;;;12.41;51.78;97366.44;4214130;28;5674;-70
2023/04/09 08:45:56;;;;;;;;;;;;;;;12.44;51.81;97359.94;4218786;28;5662;-70
2023/04/09 08:48:02;;;;;;;;;;;;;;;12.45;52.16;97362.38;4218901;28;5662;-69
2023/04/09 08:50:05;;;;;;;;;;;;;;;12.43;51.82;97364.41;4210379;28;5665;-70
2023/04/09 08:52:08;;;;;;;;;;;;;;;12.41;52.08;97365.63;4219127;28;5661;-70
2023/04/09 08:54:15;;;;;;;;;;;;;;;12.43;52.09;97368.91;4219181;28;5653;-70
2023/04/09 08:56:18;;;;;;;;;;;;;;;12.42;52.12;97361.97;4219189;28;5841;-71
2023/04/09 08:58:20;;;;;;;;;;;;;;;12.43;52.28;97366.25;4218786;28;5669;-70
2023/04/09 09:00:23;;;;;;;;;;;;;;;12.42;52.12;97368.09;4218998;28;5820;-70
2023/04/09 09:02:26;;;;;;;;;;;;;;;12.45;52.06;97375.66;4219086;28;5670;-70
2023/04/09 09:04:44;;;;;;;;;;;;;;;12.50;52.36;97375.09;4219064;28;5677;-70
2023/04/09 09:06:47;;;;;;;;;;;;;;;12.50;52.31;97383.03;4219134;28;5677;-70
2023/04/09 09:09:05;;;;;;;;;;;;;;;12.49;52.22;97379.56;4218894;28;5650;-70
2023/04/09 09:11:09;;;;;;;;;;;;;;;12.54;52.43;97385.13;4219044;28;5709;-70
2023/04/09 09:13:23;;;;;;;;;;;;;;;12.60;52.38;97375.59;4218759;28;5687;-70
2023/04/09 09:15:27;;;;;;;;;;;;;;;12.58;52.41;97380.28;4218539;28;5673;-70
2023/04/09 09:17:30;;;;;;;;;;;;;;;12.58;52.46;97377.63;4218573;28;5755;-70
2023/04/09 09:19:34;;;;;;;;;;;;;;;12.60;52.49;97380.06;4218684;28;5756;-70
2023/04/09 09:21:37;;;;;;;;;;;;;;;12.63;52.45;97377.03;4218848;28;5801;-71
2023/04/09 09:23:41;;;;;;;;;;;;;;;12.67;52.29;97375.63;4218667;28;5757;-71
2023/04/09 09:25:46;;;;;;;;;;;;;;;12.69;52.30;97379.75;4218891;28;5689;-70
2023/04/09 09:27:50;;;;;;;;;;;;;;;12.74;52.20;97368.56;4218785;28;5677;-70
2023/04/09 09:29:53;;;;;;;;;;;;;;;12.73;52.20;97374.88;4218755;28;5800;-70
2023/04/09 09:31:56;;;;;;;;;;;;;;;12.73;52.41;97378.34;4218281;28;5818;-70
2023/04/09 09:34:08;;;;;;;;;;;;;;;12.73;52.59;97374.88;4218371;28;5804;-70
2023/04/09 09:36:11;;;;;;;;;;;;;;;12.74;52.16;97377.31;4216664;28;5782;-70
2023/04/09 09:38:14;;;;;;;;;;;;;;;12.73;52.54;97365.06;4218482;28;6070;-71
2023/04/09 09:40:27;;;;;;;;;;;;;;;12.77;52.47;97360.19;4218496;28;5755;-70
2023/04/09 09:42:30;;;;;;;;;;;;;;;12.78;52.29;97361.84;4218276;28;5740;-70
2023/04/09 09:44:35;;;;;;;;;;;;;;;12.80;52.08;97363.31;4218392;28;6366;-70
2023/04/09 09:46:40;;;;;;;;;;;;;;;12.82;52.27;97358.63;4218163;28;5073;-70
2023/04/09 09:48:45;;;;;;;;;;;;;;;12.81;52.33;97356.97;4218390;28;5677;-70
2023/04/09 09:50:50;;;;;;;;;;;;;;;12.82;52.09;97350.66;4218248;28;5670;-70
2023/04/09 09:53:01;;;;;;;;;;;;;;;12.86;51.98;97351.09;4217984;28;5756;-70
2023/04/09 09:55:06;;;;;;;;;;;;;;;12.87;51.83;97358.03;4218176;28;5674;-70
2023/04/09 09:57:12;;;;;;;;;;;;;;;12.88;52.00;97351.69;4218269;28;5837;-70
2023/04/09 09:59:20;;;;;;;;;;;;;;;12.87;52.05;97351.91;4217996;28;5823;-71
2023/04/09 10:01:27;;;;;;;;;;;;;;;12.87;52.17;97351.91;4218038;28;5773;-71
2023/04/09 10:03:36;;;;;;;;;;;;;;;12.90;51.82;97347.03;4218012;28;5810;-70
2023/04/09 10:05:40;;;;;;;;;;;;;;;12.93;51.61;97348.50;4218022;28;5673;-71
2023/04/09 10:07:45;;;;;;;;;;;;;;;12.97;51.65;97347.06;4217875;28;5678;-70
2023/04/09 10:09:50;;;;;;;;;;;;;;;12.98;51.52;97341.56;4217452;28;5761;-70
2023/04/09 10:11:55;;;;;;;;;;;;;;;12.99;51.80;97340.56;4218017;28;5685;-70
2023/04/09 10:13:58;;;;;;;;;;;;;;;13.00;51.56;97339.53;4217870;28;5665;-70
2023/04/09 10:16:01;;;;;;;;;;;;;;;13.00;51.50;97338.72;4217810;28;5819;-70
2023/04/09 10:18:06;;;;;;;;;;;;;;;13.00;51.66;97333.41;4217914;28;5772;-70
2023/04/09 10:20:14;;;;;;;;;;;;;;;12.98;51.45;97325.66;4217794;28;6352;-70
2023/04/09 10:22:22;;;;;;;;;;;;;;;12.98;51.49;97330.94;4217722;28;6359;-71
2023/04/09 10:24:25;;;;;;;;;;;;;;;12.99;51.67;97332.59;4217913;28;5674;-70
2023/04/09 10:26:29;;;;;;;;;;;;;;;13.01;51.28;97335.84;4217809;28;5763;-72
2023/04/09 10:28:32;;;;;;;;;;;;;;;13.02;51.27;97342.00;4217804;28;5693;-70
2023/04/09 10:30:36;;;;;;;;;;;;;;;13.03;51.38;97336.50;4217528;28;5662;-70
2023/04/09 10:32:39;;;;;;;;;;;;;;;13.06;51.30;97335.28;4217767;28;5732;-70
2023/04/09 10:34:43;;;;;;;;;;;;;;;13.09;51.09;97330.41;4217610;28;5765;-70
2023/04/09 10:36:51;;;;;;;;;;;;;;;13.12;50.95;97335.31;4217661;28;5666;-71
2023/04/09 10:38:55;;;;;;;;;;;;;;;13.14;51.08;97329.84;4217521;28;5718;-70
2023/04/09 10:40:58;;;;;;;;;;;;;;;13.17;50.66;97332.09;4217591;28;5674;-71
2023/04/09 10:43:03;;;;;;;;;;;;;;;13.18;50.81;97333.72;4217477;28;5768;-70
2023/04/09 10:45:12;;;;;;;;;;;;;;;13.18;50.81;97331.06;4217199;28;5680;-70
2023/04/09 10:47:32;;;;;;;;;;;;;;;13.21;50.59;97328.03;4217673;28;5868;-70
2023/04/09 10:49:39;;;;;;;;;;;;;;;13.24;50.34;97329.47;4217471;28;7814;-70
2023/04/09 10:51:49;;;;;;;;;;;;;;;13.27;50.44;97327.28;4217337;28;5686;-70
2023/04/09 10:53:53;;;;;;;;;;;;;;;13.32;50.28;97322.19;4217272;28;5853;-71
2023/04/09 10:55:57;;;;;;;;;;;;;;;13.31;50.27;97315.22;4217635;28;5677;-70